sensor_id;sensor_type;location;lat;lon;timestamp;pressure;altitude;pressure_sealevel;temperature;humidity
35443;BME280;21561;55.654;37.592;2023-10-19T00:01:27;98345.16;;;3.66;100.00
35443;BME280;21561;55.654;37.592;2023-10-19T00:03:55;98344.28;;;3.69;100.00
35443;BME280;21561;55.654;37.592;2023-10-19T00:06:25;98338.28;;;3.71;100.00
35443;BME280;21561;55.654;37.592;2023-10-19T00:08:52;98337.44;;;3.74;100.00
35443;BME280;21561;55.654;37.592;2023-10-19T00:11:19;98341.72;;;3.72;100.00
35443;BME280;21561;55.654;37.592;2023-10-19T00:13:52;98336.59;;;3.72;100.00
35443;BME280;21561;55.654;37.592;2023-10-19T00:16:24;98343.41;;;3.73;100.00
35443;BME280;21561;55.654;37.592;2023-10-19T00:18:57;98333.16;;;3.74;100.00
35443;BME280;21561;55.654;37.592;2023-10-19T00:21:26;98340.84;;;3.76;100.00
35443;BME280;21561;55.654;37.592;2023-10-19T00:23:56;98343.44;;;3.77;100.00
35443;BME280;21561;55.654;37.592;2023-10-19T00:26:25;98348.56;;;3.77;100.00
35443;BME280;21561;55.654;37.592;2023-10-19T00:28:53;98340.84;;;3.76;100.00
35443;BME280;21561;55.654;37.592;2023-10-19T00:31:24;98339.13;;;3.78;100.00
35443;BME280;21561;55.654;37.592;2023-10-19T00:33:54;98340.84;;;3.76;100.00
35443;BME280;21561;55.654;37.592;2023-10-19T00:36:23;98336.56;;;3.75;100.00
35443;BME280;21561;55.654;37.592;2023-10-19T00:38:50;98334.00;;;3.75;100.00
35443;BME280;21561;55.654;37.592;2023-10-19T00:41:21;98339.13;;;3.78;100.00
35443;BME280;21561;55.654;37.592;2023-10-19T00:43:59;98334.84;;;3.80;100.00
35443;BME280;21561;55.654;37.592;2023-10-19T00:46:30;98337.44;;;3.80;100.00
35443;BME280;21561;55.654;37.592;2023-10-19T00:49:05;98334.00;;;3.76;100.00
35443;BME280;21561;55.654;37.592;2023-10-19T00:51:37;98338.31;;;3.80;100.00
35443;BME280;21561;55.654;37.592;2023-10-19T00:54:14;98338.31;;;3.80;100.00
35443;BME280;21561;55.654;37.592;2023-10-19T00:56:45;98334.00;;;3.78;100.00
35443;BME280;21561;55.654;37.592;2023-10-19T00:59:19;98328.88;;;3.84;100.00
35443;BME280;21561;55.654;37.592;2023-10-19T01:01:52;98334.03;;;3.84;100.00
35443;BME280;21561;55.654;37.592;2023-10-19T01:04:30;98335.72;;;3.82;100.00
35443;BME280;21561;55.654;37.592;2023-10-19T01:07:01;98337.44;;;3.85;100.00
35443;BME280;21561;55.654;37.592;2023-10-19T01:09:49;98339.16;;;3.84;100.00
35443;BME280;21561;55.654;37.592;2023-10-19T01:12:19;98331.47;;;3.84;100.00
35443;BME280;21561;55.654;37.592;2023-10-19T01:17:57;98338.28;;;3.88;100.00
35443;BME280;21561;55.654;37.592;2023-10-19T01:20:30;98339.13;;;3.90;100.00
35443;BME280;21561;55.654;37.592;2023-10-19T01:23:03;98337.44;;;3.86;100.00
35443;BME280;21561;55.654;37.592;2023-10-19T01:25:47;98332.31;;;3.86;100.00
35443;BME280;21561;55.654;37.592;2023-10-19T01:28:29;98335.72;;;3.79;100.00
35443;BME280;21561;55.654;37.592;2023-10-19T01:31:15;98331.44;;;3.79;100.00
35443;BME280;21561;55.654;37.592;2023-10-19T01:33:57;98325.47;;;3.73;100.00
35443;BME280;21561;55.654;37.592;2023-10-19T01:36:25;98331.47;;;3.70;100.00
35443;BME280;21561;55.654;37.592;2023-10-19T01:38:57;98328.91;;;3.72;100.00
35443;BME280;21561;55.654;37.592;2023-10-19T01:41:37;98332.28;;;3.68;100.00
35443;BME280;21561;55.654;37.592;2023-10-19T01:44:06;98327.16;;;3.68;100.00
35443;BME280;21561;55.654;37.592;2023-10-19T01:46:34;98323.75;;;3.69;100.00
35443;BME280;21561;55.654;37.592;2023-10-19T01:49:04;98327.19;;;3.71;100.00
35443;BME280;21561;55.654;37.592;2023-10-19T01:51:32;98325.47;;;3.70;100.00
35443;BME280;21561;55.654;37.592;2023-10-19T01:54:00;98328.88;;;3.69;100.00
35443;BME280;21561;55.654;37.592;2023-10-19T01:56:30;98326.31;;;3.67;100.00
35443;BME280;21561;55.654;37.592;2023-10-19T01:58:57;98327.16;;;3.68;100.00
35443;BME280;21561;55.654;37.592;2023-10-19T02:01:25;98324.59;;;3.68;100.00
35443;BME280;21561;55.654;37.592;2023-10-19T02:03:58;98319.47;;;3.72;100.00
35443;BME280;21561;55.654;37.592;2023-10-19T02:06:29;98330.56;;;3.82;100.00
35443;BME280;21561;55.654;37.592;2023-10-19T02:09:09;98328.91;;;3.72;100.00
35443;BME280;21561;55.654;37.592;2023-10-19T02:11:46;98315.19;;;3.73;100.00
35443;BME280;21561;55.654;37.592;2023-10-19T02:14:15;98322.91;;;3.74;100.00
35443;BME280;21561;55.654;37.592;2023-10-19T02:17:02;98322.06;;;3.74;100.00
35443;BME280;21561;55.654;37.592;2023-10-19T02:19:31;98321.19;;;3.75;100.00
35443;BME280;21561;55.654;37.592;2023-10-19T02:22:04;98325.47;;;3.73;100.00
35443;BME280;21561;55.654;37.592;2023-10-19T02:24:35;98322.06;;;3.74;100.00
35443;BME280;21561;55.654;37.592;2023-10-19T02:27:02;98322.06;;;3.74;100.00
35443;BME280;21561;55.654;37.592;2023-10-19T02:29:30;98323.75;;;3.72;100.00
35443;BME280;21561;55.654;37.592;2023-10-19T02:31:58;98312.63;;;3.73;100.00
35443;BME280;21561;55.654;37.592;2023-10-19T02:34:31;98327.19;;;3.74;100.00
35443;BME280;21561;55.654;37.592;2023-10-19T02:36:58;98313.47;;;3.75;100.00
35443;BME280;21561;55.654;37.592;2023-10-19T02:39:25;98316.91;;;3.74;100.00
35443;BME280;21561;55.654;37.592;2023-10-19T02:41:55;98323.75;;;3.72;100.00
35443;BME280;21561;55.654;37.592;2023-10-19T02:44:23;98325.47;;;3.70;100.00
35443;BME280;21561;55.654;37.592;2023-10-19T02:46:53;98317.78;;;3.68;100.00
35443;BME280;21561;55.654;37.592;2023-10-19T02:49:27;98322.03;;;3.68;100.00
35443;BME280;21561;55.654;37.592;2023-10-19T02:51:57;98327.16;;;3.68;100.00
35443;BME280;21561;55.654;37.592;2023-10-19T02:54:32;98326.31;;;3.70;100.00
35443;BME280;21561;55.654;37.592;2023-10-19T02:57:03;98326.34;;;3.72;100.00
35443;BME280;21561;55.654;37.592;2023-10-19T02:59:35;98327.19;;;3.74;100.00
35443;BME280;21561;55.654;37.592;2023-10-19T03:02:02;98320.31;;;3.73;100.00
35443;BME280;21561;55.654;37.592;2023-10-19T03:04:49;98320.34;;;3.74;100.00
35443;BME280;21561;55.654;37.592;2023-10-19T03:07:16;98310.94;;;3.73;100.00
35443;BME280;21561;55.654;37.592;2023-10-19T03:09:45;98322.06;;;3.74;100.00
35443;BME280;21561;55.654;37.592;2023-10-19T03:12:21;98311.78;;;3.71;100.00
35443;BME280;21561;55.654;37.592;2023-10-19T03:14:52;98313.50;;;3.72;100.00
35443;BME280;21561;55.654;37.592;2023-10-19T03:17:19;98313.50;;;3.72;100.00
35443;BME280;21561;55.654;37.592;2023-10-19T03:19:46;98318.63;;;3.72;100.00
35443;BME280;21561;55.654;37.592;2023-10-19T03:22:15;98316.91;;;3.68;100.00
35443;BME280;21561;55.654;37.592;2023-10-19T03:24:43;98320.34;;;3.67;100.00
35443;BME280;21561;55.654;37.592;2023-10-19T03:27:15;98319.47;;;3.68;100.00
35443;BME280;21561;55.654;37.592;2023-10-19T03:29:50;98321.19;;;3.66;100.00
35443;BME280;21561;55.654;37.592;2023-10-19T03:32:26;98320.34;;;3.65;100.00
35443;BME280;21561;55.654;37.592;2023-10-19T03:34:56;98323.75;;;3.66;100.00
35443;BME280;21561;55.654;37.592;2023-10-19T03:37:25;98310.06;;;3.63;100.00
35443;BME280;21561;55.654;37.592;2023-10-19T03:39:53;98318.63;;;3.66;100.00
35443;BME280;21561;55.654;37.592;2023-10-19T03:42:27;98316.94;;;3.65;100.00
35443;BME280;21561;55.654;37.592;2023-10-19T03:44:59;98322.06;;;3.65;100.00
35443;BME280;21561;55.654;37.592;2023-10-19T03:47:30;98322.06;;;3.74;100.00
35443;BME280;21561;55.654;37.592;2023-10-19T03:50:05;98319.50;;;3.63;100.00
35443;BME280;21561;55.654;37.592;2023-10-19T03:52:37;98316.94;;;3.65;100.00
35443;BME280;21561;55.654;37.592;2023-10-19T03:55:06;98321.22;;;3.62;100.00
35443;BME280;21561;55.654;37.592;2023-10-19T03:57:45;98318.66;;;3.62;100.00
35443;BME280;21561;55.654;37.592;2023-10-19T04:00:20;98322.06;;;3.65;100.00
35443;BME280;21561;55.654;37.592;2023-10-19T04:02:52;98321.19;;;3.66;100.00
35443;BME280;21561;55.654;37.592;2023-10-19T04:05:22;98325.47;;;3.65;100.00
35443;BME280;21561;55.654;37.592;2023-10-19T04:07:50;98322.06;;;3.63;100.00
35443;BME280;21561;55.654;37.592;2023-10-19T04:10:21;98324.59;;;3.68;100.00
35443;BME280;21561;55.654;37.592;2023-10-19T04:13:05;98322.91;;;3.68;100.00
35443;BME280;21561;55.654;37.592;2023-10-19T04:15:40;98322.03;;;3.68;100.00
35443;BME280;21561;55.654;37.592;2023-10-19T04:18:08;98327.19;;;3.71;100.00
35443;BME280;21561;55.654;37.592;2023-10-19T04:20:38;98325.44;;;3.71;100.00
35443;BME280;21561;55.654;37.592;2023-10-19T04:23:17;98328.91;;;3.72;100.00
35443;BME280;21561;55.654;37.592;2023-10-19T04:25:44;98332.31;;;3.71;100.00
35443;BME280;21561;55.654;37.592;2023-10-19T04:28:14;98332.31;;;3.71;100.00
35443;BME280;21561;55.654;37.592;2023-10-19T04:30:41;98332.31;;;3.71;100.00
35443;BME280;21561;55.654;37.592;2023-10-19T04:33:09;98332.31;;;3.71;100.00
35443;BME280;21561;55.654;37.592;2023-10-19T04:35:37;98332.31;;;3.71;100.00
35443;BME280;21561;55.654;37.592;2023-10-19T04:38:05;98334.03;;;3.72;100.00
35443;BME280;21561;55.654;37.592;2023-10-19T04:40:34;98328.91;;;3.73;100.00
35443;BME280;21561;55.654;37.592;2023-10-19T04:43:03;98332.31;;;3.74;100.00
35443;BME280;21561;55.654;37.592;2023-10-19T04:45:33;98330.59;;;3.76;100.00
35443;BME280;21561;55.654;37.592;2023-10-19T04:48:00;98330.59;;;3.76;100.00
35443;BME280;21561;55.654;37.592;2023-10-19T04:50:29;98331.47;;;3.73;100.00
35443;BME280;21561;55.654;37.592;2023-10-19T04:52:56;98334.88;;;3.75;100.00
35443;BME280;21561;55.654;37.592;2023-10-19T04:55:23;98333.16;;;3.80;100.00
35443;BME280;21561;55.654;37.592;2023-10-19T04:57:50;98332.28;;;3.80;100.00
35443;BME280;21561;55.654;37.592;2023-10-19T05:00:17;98334.84;;;3.81;100.00
35443;BME280;21561;55.654;37.592;2023-10-19T05:02:47;98330.56;;;3.82;100.00
35443;BME280;21561;55.654;37.592;2023-10-19T05:05:14;98332.28;;;3.80;100.00
35443;BME280;21561;55.654;37.592;2023-10-19T05:07:44;98335.72;;;3.79;100.00
35443;BME280;21561;55.654;37.592;2023-10-19T05:10:11;98334.84;;;3.78;100.00
35443;BME280;21561;55.654;37.592;2023-10-19T05:12:38;98339.16;;;3.84;100.00
35443;BME280;21561;55.654;37.592;2023-10-19T05:15:06;98335.72;;;3.88;100.00
35443;BME280;21561;55.654;37.592;2023-10-19T05:17:33;98334.00;;;3.93;100.00
35443;BME280;21561;55.654;37.592;2023-10-19T05:20:00;98324.59;;;3.94;100.00
35443;BME280;21561;55.654;37.592;2023-10-19T05:22:29;98334.00;;;3.93;100.00
35443;BME280;21561;55.654;37.592;2023-10-19T05:24:59;98336.53;;;3.96;100.00
35443;BME280;21561;55.654;37.592;2023-10-19T05:27:31;98339.97;;;3.95;100.00
35443;BME280;21561;55.654;37.592;2023-10-19T05:30:00;98345.13;;;3.98;100.00
35443;BME280;21561;55.654;37.592;2023-10-19T05:32:26;98345.97;;;3.97;100.00
35443;BME280;21561;55.654;37.592;2023-10-19T05:34:56;98341.69;;;3.98;100.00
35443;BME280;21561;55.654;37.592;2023-10-19T05:37:26;98344.25;;;3.99;100.00
35443;BME280;21561;55.654;37.592;2023-10-19T05:39:56;98347.69;;;3.98;100.00
35443;BME280;21561;55.654;37.592;2023-10-19T05:42:23;98356.22;;;4.04;100.00
35443;BME280;21561;55.654;37.592;2023-10-19T05:44:50;98355.38;;;4.06;100.00
35443;BME280;21561;55.654;37.592;2023-10-19T05:47:18;98347.66;;;4.18;100.00
35443;BME280;21561;55.654;37.592;2023-10-19T05:49:45;98347.50;;;4.63;100.00
35443;BME280;21561;55.654;37.592;2023-10-19T05:52:12;98337.09;;;4.89;100.00
35443;BME280;21561;55.654;37.592;2023-10-19T05:54:39;98344.81;;;4.86;100.00
35443;BME280;21561;55.654;37.592;2023-10-19T05:57:06;98354.22;;;4.89;100.00
35443;BME280;21561;55.654;37.592;2023-10-19T05:59:35;98350.00;;;4.75;100.00
35443;BME280;21561;55.654;37.592;2023-10-19T06:02:02;98356.06;;;4.65;100.00
35443;BME280;21561;55.654;37.592;2023-10-19T06:04:31;98354.38;;;4.58;100.00
35443;BME280;21561;55.654;37.592;2023-10-19T06:06:59;98355.25;;;4.52;100.00
35443;BME280;21561;55.654;37.592;2023-10-19T06:09:26;98353.53;;;4.48;100.00
35443;BME280;21561;55.654;37.592;2023-10-19T06:11:56;98351.84;;;4.46;100.00
35443;BME280;21561;55.654;37.592;2023-10-19T06:14:23;98349.25;;;4.53;100.00
35443;BME280;21561;55.654;37.592;2023-10-19T06:16:50;98350.13;;;4.49;100.00
35443;BME280;21561;55.654;37.592;2023-10-19T06:19:17;98347.56;;;4.48;100.00
35443;BME280;21561;55.654;37.592;2023-10-19T06:21:44;98352.66;;;4.54;100.00
35443;BME280;21561;55.654;37.592;2023-10-19T06:24:11;98347.56;;;4.51;100.00
35443;BME280;21561;55.654;37.592;2023-10-19T06:26:42;98350.91;;;4.64;100.00
35443;BME280;21561;55.654;37.592;2023-10-19T06:29:10;98354.28;;;4.75;100.00
35443;BME280;21561;55.654;37.592;2023-10-19T06:31:40;98356.81;;;4.87;100.00
35443;BME280;21561;55.654;37.592;2023-10-19T06:34:06;98360.28;;;4.80;100.00
35443;BME280;21561;55.654;37.592;2023-10-19T06:36:33;98367.09;;;4.89;100.00
35443;BME280;21561;55.654;37.592;2023-10-19T06:39:00;98363.69;;;4.88;100.00
35443;BME280;21561;55.654;37.592;2023-10-19T06:41:32;98357.47;;;5.19;100.00
35443;BME280;21561;55.654;37.592;2023-10-19T06:43:59;98354.13;;;5.10;100.00
35443;BME280;21561;55.654;37.592;2023-10-19T06:46:27;98353.34;;;4.96;100.00
35443;BME280;21561;55.654;37.592;2023-10-19T06:48:55;98355.94;;;4.90;100.00
35443;BME280;21561;55.654;37.592;2023-10-19T06:51:26;98352.50;;;4.91;100.00
35443;BME280;21561;55.654;37.592;2023-10-19T06:53:53;98352.50;;;4.94;100.00
35443;BME280;21561;55.654;37.592;2023-10-19T06:56:20;98352.50;;;4.94;100.00
35443;BME280;21561;55.654;37.592;2023-10-19T06:58:47;98347.38;;;4.92;100.00
35443;BME280;21561;55.654;37.592;2023-10-19T07:01:14;98348.22;;;4.93;100.00
35443;BME280;21561;55.654;37.592;2023-10-19T07:03:44;98354.22;;;4.92;100.00
35443;BME280;21561;55.654;37.592;2023-10-19T07:06:11;98351.66;;;4.90;100.00
35443;BME280;21561;55.654;37.592;2023-10-19T07:08:40;98357.66;;;4.88;100.00
35443;BME280;21561;55.654;37.592;2023-10-19T07:11:07;98360.22;;;4.94;100.00
35443;BME280;21561;55.654;37.592;2023-10-19T07:13:36;98357.59;;;5.03;100.00
35443;BME280;21561;55.654;37.592;2023-10-19T07:16:03;98358.34;;;5.21;100.00
35443;BME280;21561;55.654;37.592;2023-10-19T07:18:31;98358.28;;;5.33;100.00
35443;BME280;21561;55.654;37.592;2023-10-19T07:20:58;98366.84;;;5.33;100.00
35443;BME280;21561;55.654;37.592;2023-10-19T07:23:31;98366.84;;;5.30;100.00
35443;BME280;21561;55.654;37.592;2023-10-19T07:25:58;98365.19;;;5.23;100.00
35443;BME280;21561;55.654;37.592;2023-10-19T07:28:28;98368.59;;;5.22;100.00
35443;BME280;21561;55.654;37.592;2023-10-19T07:30:57;98372.88;;;5.29;100.00
35443;BME280;21561;55.654;37.592;2023-10-19T07:33:26;98369.44;;;5.29;100.00
35443;BME280;21561;55.654;37.592;2023-10-19T07:35:53;98372.91;;;5.25;100.00
35443;BME280;21561;55.654;37.592;2023-10-19T07:38:27;98372.91;;;5.19;100.00
35443;BME280;21561;55.654;37.592;2023-10-19T07:40:55;98371.25;;;5.11;100.00
35443;BME280;21561;55.654;37.592;2023-10-19T07:43:23;98368.72;;;5.07;100.00
35443;BME280;21561;55.654;37.592;2023-10-19T07:45:55;98371.28;;;5.07;100.00
35443;BME280;21561;55.654;37.592;2023-10-19T07:48:22;98369.56;;;5.07;100.00
35443;BME280;21561;55.654;37.592;2023-10-19T07:50:51;98368.63;;;5.21;100.00
35443;BME280;21561;55.654;37.592;2023-10-19T07:53:20;98378.03;;;5.22;100.00
35443;BME280;21561;55.654;37.592;2023-10-19T07:55:48;98373.75;;;5.24;100.00
35443;BME280;21561;55.654;37.592;2023-10-19T07:58:15;98374.63;;;5.26;100.00
35443;BME280;21561;55.654;37.592;2023-10-19T08:00:42;98378.81;;;5.36;100.00
35443;BME280;21561;55.654;37.592;2023-10-19T08:03:10;98383.97;;;5.36;100.00
35443;BME280;21561;55.654;37.592;2023-10-19T08:05:37;98379.69;;;5.35;100.00
35443;BME280;21561;55.654;37.592;2023-10-19T08:08:05;98378.84;;;5.33;100.00
35443;BME280;21561;55.654;37.592;2023-10-19T08:10:33;98381.44;;;5.27;100.00
35443;BME280;21561;55.654;37.592;2023-10-19T08:13:03;98379.78;;;5.23;100.00
35443;BME280;21561;55.654;37.592;2023-10-19T08:15:30;98378.09;;;5.17;100.00
35443;BME280;21561;55.654;37.592;2023-10-19T08:17:58;98379.81;;;5.13;100.00
35443;BME280;21561;55.654;37.592;2023-10-19T08:20:25;98379.78;;;5.16;100.00
35443;BME280;21561;55.654;37.592;2023-10-19T08:23:04;98384.03;;;5.25;100.00
35443;BME280;21561;55.654;37.592;2023-10-19T08:25:32;98381.44;;;5.30;100.00
35443;BME280;21561;55.654;37.592;2023-10-19T08:28:20;98384.84;;;5.32;100.00
35443;BME280;21561;55.654;37.592;2023-10-19T08:30:47;98386.56;;;5.33;100.00
35443;BME280;21561;55.654;37.592;2023-10-19T08:33:24;98388.25;;;5.34;100.00
35443;BME280;21561;55.654;37.592;2023-10-19T08:35:54;98390.00;;;5.32;100.00
35443;BME280;21561;55.654;37.592;2023-10-19T08:38:24;98385.69;;;5.34;100.00
35443;BME280;21561;55.654;37.592;2023-10-19T08:40:53;98390.00;;;5.35;100.00
35443;BME280;21561;55.654;37.592;2023-10-19T08:43:20;98386.38;;;5.58;100.00
35443;BME280;21561;55.654;37.592;2023-10-19T08:45:48;98383.69;;;5.74;100.00
35443;BME280;21561;55.654;37.592;2023-10-19T08:48:16;98386.28;;;5.76;100.00
35443;BME280;21561;55.654;37.592;2023-10-19T08:50:43;98385.38;;;5.76;100.00
35443;BME280;21561;55.654;37.592;2023-10-19T08:53:10;98382.00;;;5.72;100.00
35443;BME280;21561;55.654;37.592;2023-10-19T08:55:41;98387.06;;;5.83;100.00
35443;BME280;21561;55.654;37.592;2023-10-19T08:58:17;98390.34;;;6.03;100.00
35443;BME280;21561;55.654;37.592;2023-10-19T09:00:50;98395.44;;;6.09;100.00
35443;BME280;21561;55.654;37.592;2023-10-19T09:03:24;98392.06;;;6.03;100.00
35443;BME280;21561;55.654;37.592;2023-10-19T09:05:53;98392.09;;;6.00;100.00
35443;BME280;21561;55.654;37.592;2023-10-19T09:08:21;98394.69;;;5.97;100.00
35443;BME280;21561;55.654;37.592;2023-10-19T09:10:50;98396.41;;;5.95;100.00
35443;BME280;21561;55.654;37.592;2023-10-19T09:13:22;98398.13;;;5.96;100.00
35443;BME280;21561;55.654;37.592;2023-10-19T09:15:52;98397.25;;;6.00;100.00
35443;BME280;21561;55.654;37.592;2023-10-19T09:18:26;98399.75;;;6.09;100.00
35443;BME280;21561;55.654;37.592;2023-10-19T09:20:57;98405.84;;;5.97;100.00
35443;BME280;21561;55.654;37.592;2023-10-19T09:23:35;98411.88;;;5.88;100.00
35443;BME280;21561;55.654;37.592;2023-10-19T09:26:04;98410.22;;;5.81;100.00
35443;BME280;21561;55.654;37.592;2023-10-19T09:28:36;98409.38;;;5.81;100.00
35443;BME280;21561;55.654;37.592;2023-10-19T09:31:04;98407.66;;;5.81;100.00
35443;BME280;21561;55.654;37.592;2023-10-19T09:33:33;98406.75;;;5.88;100.00
35443;BME280;21561;55.654;37.592;2023-10-19T09:36:02;98405.81;;;6.02;100.00
35443;BME280;21561;55.654;37.592;2023-10-19T09:38:31;98404.88;;;6.12;100.00
35443;BME280;21561;55.654;37.592;2023-10-19T09:41:00;98403.22;;;6.05;100.00
35443;BME280;21561;55.654;37.592;2023-10-19T09:43:35;98407.47;;;6.09;100.00
35443;BME280;21561;55.654;37.592;2023-10-19T09:46:08;98408.19;;;6.23;100.00
35443;BME280;21561;55.654;37.592;2023-10-19T09:48:39;98402.84;;;6.42;100.00
35443;BME280;21561;55.654;37.592;2023-10-19T09:51:09;98406.44;;;6.28;100.00
35443;BME280;21561;55.654;37.592;2023-10-19T09:53:45;98409.00;;;6.30;100.00
35443;BME280;21561;55.654;37.592;2023-10-19T09:56:32;98407.16;;;6.44;100.00
35443;BME280;21561;55.654;37.592;2023-10-19T09:59:05;98400.25;;;6.46;100.00
35443;BME280;21561;55.654;37.592;2023-10-19T10:02:07;98396.84;;;6.41;100.00
35443;BME280;21561;55.654;37.592;2023-10-19T10:04:38;98402.09;;;6.32;100.00
35443;BME280;21561;55.654;37.592;2023-10-19T10:07:08;98403.03;;;6.26;100.00
35443;BME280;21561;55.654;37.592;2023-10-19T10:09:40;98409.84;;;6.29;100.00
35443;BME280;21561;55.654;37.592;2023-10-19T10:12:23;98411.50;;;6.38;100.00
35443;BME280;21561;55.654;37.592;2023-10-19T10:15:02;98407.06;;;6.49;100.00
35443;BME280;21561;55.654;37.592;2023-10-19T10:17:38;98404.44;;;6.55;100.00
35443;BME280;21561;55.654;37.592;2023-10-19T10:23:20;98405.84;;;6.84;100.00
35443;BME280;21561;55.654;37.592;2023-10-19T10:25:53;98412.72;;;6.82;100.00
35443;BME280;21561;55.654;37.592;2023-10-19T10:28:21;98404.94;;;6.85;100.00
35443;BME280;21561;55.654;37.592;2023-10-19T10:31:20;98405.72;;;6.93;100.00
35443;BME280;21561;55.654;37.592;2023-10-19T10:33:53;98401.66;;;6.75;100.00
35443;BME280;21561;55.654;37.592;2023-10-19T10:36:23;98399.19;;;6.64;100.00
35443;BME280;21561;55.654;37.592;2023-10-19T10:39:01;98405.19;;;6.65;100.00
35443;BME280;21561;55.654;37.592;2023-10-19T10:41:31;98399.31;;;6.54;100.00
35443;BME280;21561;55.654;37.592;2023-10-19T10:43:58;98404.47;;;6.52;100.00
35443;BME280;21561;55.654;37.592;2023-10-19T10:46:26;98411.31;;;6.53;100.00
35443;BME280;21561;55.654;37.592;2023-10-19T10:48:55;98411.28;;;6.56;100.00
35443;BME280;21561;55.654;37.592;2023-10-19T10:51:25;98406.94;;;6.64;100.00
35443;BME280;21561;55.654;37.592;2023-10-19T10:53:54;98410.25;;;6.71;100.00
35443;BME280;21561;55.654;37.592;2023-10-19T10:56:23;98410.31;;;6.68;100.00
35443;BME280;21561;55.654;37.592;2023-10-19T10:58:50;98408.63;;;6.64;100.00
35443;BME280;21561;55.654;37.592;2023-10-19T11:01:31;98407.72;;;6.69;100.00
35443;BME280;21561;55.654;37.592;2023-10-19T11:04:09;98411.25;;;6.62;100.00
35443;BME280;21561;55.654;37.592;2023-10-19T11:06:52;98413.13;;;6.48;100.00
35443;BME280;21561;55.654;37.592;2023-10-19T11:09:21;98413.25;;;6.33;100.00
35443;BME280;21561;55.654;37.592;2023-10-19T11:11:48;98415.09;;;6.21;100.00
35443;BME280;21561;55.654;37.592;2023-10-19T11:14:21;98415.19;;;6.10;100.00
35443;BME280;21561;55.654;37.592;2023-10-19T11:16:52;98423.81;;;6.05;100.00
35443;BME280;21561;55.654;37.592;2023-10-19T11:19:19;98416.09;;;6.03;100.00
35443;BME280;21561;55.654;37.592;2023-10-19T11:21:54;98423.84;;;6.02;100.00
35443;BME280;21561;55.654;37.592;2023-10-19T11:24:26;98419.59;;;5.93;100.00
35443;BME280;21561;55.654;37.592;2023-10-19T11:26:55;98414.44;;;5.91;100.00
35443;BME280;21561;55.654;37.592;2023-10-19T11:29:22;98423.91;;;5.86;100.00
35443;BME280;21561;55.654;37.592;2023-10-19T11:32:00;98429.97;;;5.85;100.00
35443;BME280;21561;55.654;37.592;2023-10-19T11:34:29;98425.81;;;5.60;100.00
35443;BME280;21561;55.654;37.592;2023-10-19T11:36:57;98420.72;;;5.53;100.00
35443;BME280;21561;55.654;37.592;2023-10-19T11:39:27;98425.06;;;5.48;100.00
35443;BME280;21561;55.654;37.592;2023-10-19T11:41:55;98428.50;;;5.46;100.00
35443;BME280;21561;55.654;37.592;2023-10-19T11:44:22;98421.69;;;5.39;100.00
35443;BME280;21561;55.654;37.592;2023-10-19T11:46:49;98426.00;;;5.35;100.00
35443;BME280;21561;55.654;37.592;2023-10-19T11:49:16;98426.84;;;5.35;100.00
35443;BME280;21561;55.654;37.592;2023-10-19T11:51:43;98420.88;;;5.29;100.00
35443;BME280;21561;55.654;37.592;2023-10-19T11:54:10;98427.75;;;5.27;100.00
35443;BME280;21561;55.654;37.592;2023-10-19T11:56:39;98422.59;;;5.30;100.00
35443;BME280;21561;55.654;37.592;2023-10-19T11:59:06;98417.44;;;5.33;100.00
35443;BME280;21561;55.654;37.592;2023-10-19T12:01:34;98422.47;;;5.48;100.00
35443;BME280;21561;55.654;37.592;2023-10-19T12:04:01;98417.25;;;5.61;100.00
35443;BME280;21561;55.654;37.592;2023-10-19T12:06:28;98422.31;;;5.73;100.00
35443;BME280;21561;55.654;37.592;2023-10-19T12:08:55;98423.16;;;5.77;100.00
35443;BME280;21561;55.654;37.592;2023-10-19T12:11:25;98417.91;;;5.87;100.00
35443;BME280;21561;55.654;37.592;2023-10-19T12:13:52;98413.56;;;5.96;100.00
35443;BME280;21561;55.654;37.592;2023-10-19T12:16:20;98420.44;;;5.97;100.00
35443;BME280;21561;55.654;37.592;2023-10-19T12:18:52;98419.59;;;5.98;100.00
35443;BME280;21561;55.654;37.592;2023-10-19T12:21:20;98424.69;;;5.99;100.00
35443;BME280;21561;55.654;37.592;2023-10-19T12:23:54;98427.28;;;6.01;100.00
35443;BME280;21561;55.654;37.592;2023-10-19T12:26:24;98425.53;;;6.04;100.00
35443;BME280;21561;55.654;37.592;2023-10-19T12:28:51;98427.25;;;6.04;100.00
35443;BME280;21561;55.654;37.592;2023-10-19T12:31:18;98420.44;;;6.00;100.00
35443;BME280;21561;55.654;37.592;2023-10-19T12:33:46;98428.16;;;5.95;100.00
35443;BME280;21561;55.654;37.592;2023-10-19T12:36:16;98434.19;;;5.92;100.00
35443;BME280;21561;55.654;37.592;2023-10-19T12:38:52;98427.31;;;5.91;100.00
35443;BME280;21561;55.654;37.592;2023-10-19T12:41:20;98429.03;;;5.92;100.00
35443;BME280;21561;55.654;37.592;2023-10-19T12:43:48;98429.06;;;5.89;100.00
35443;BME280;21561;55.654;37.592;2023-10-19T12:46:19;98429.13;;;5.83;100.00
35443;BME280;21561;55.654;37.592;2023-10-19T12:48:49;98430.88;;;5.75;100.00
35443;BME280;21561;55.654;37.592;2023-10-19T12:51:16;98430.06;;;5.70;100.00
35443;BME280;21561;55.654;37.592;2023-10-19T12:53:53;98426.63;;;5.69;100.00
35443;BME280;21561;55.654;37.592;2023-10-19T12:56:21;98434.41;;;5.62;100.00
35443;BME280;21561;55.654;37.592;2023-10-19T12:58:51;98433.53;;;5.66;100.00
35443;BME280;21561;55.654;37.592;2023-10-19T13:01:18;98431.78;;;5.69;100.00
35443;BME280;21561;55.654;37.592;2023-10-19T13:03:47;98434.34;;;5.71;100.00
35443;BME280;21561;55.654;37.592;2023-10-19T13:06:17;98434.31;;;5.74;100.00
35443;BME280;21561;55.654;37.592;2023-10-19T13:08:44;98428.31;;;5.77;100.00
35443;BME280;21561;55.654;37.592;2023-10-19T13:11:10;98426.63;;;5.72;100.00
35443;BME280;21561;55.654;37.592;2023-10-19T13:13:44;98437.78;;;5.70;100.00